Time;durP1;ratioP1;P1;durP2;ratioP2;P2;SDS_P1;SDS_P2;PMS_P1;PMS_P2;Temp;Humidity;BMP_temperature;BMP_pressure;BME280_temperature;BME280_humidity;BME280_pressure;Samples;Min_cycle;Max_cycle;Signal;HPM_P1;HPM_P2
2023/08/19 00:00:07;;;;;;;6.47;4.20;;;;;;;;;;625743;23;1403;-74
2023/08/19 00:00:22;;;;;;;7.78;4.18;;;;;;;;;;627897;23;1219;-75
2023/08/19 00:00:38;;;;;;;8.43;4.20;;;;;;;;;;628458;23;1218;-74
2023/08/19 00:00:53;;;;;;;8.10;4.20;;;;;;;;;;622555;23;1387;-75
2023/08/19 00:01:09;;;;;;;6.80;4.10;;;;;;;;;;623006;23;888;-74
2023/08/19 00:01:24;;;;;;;6.13;4.20;;;;;;;;;;623536;23;845;-74
2023/08/19 00:01:40;;;;;;;8.80;4.40;;;;;;;;;;625531;23;1356;-75
2023/08/19 00:01:55;;;;;;;9.03;4.40;;;;;;;;;;626001;23;1304;-75
2023/08/19 00:02:10;;;;;;;6.97;4.20;;;;;;;;;;626057;23;1311;-75
2023/08/19 00:02:26;;;;;;;7.63;4.18;;;;;;;;;;622734;23;1388;-75
2023/08/19 00:02:42;;;;;;;7.93;4.37;;;;;;;;;;622993;23;1121;-75
2023/08/19 00:02:57;;;;;;;6.13;4.03;;;;;;;;;;625705;23;908;-75
2023/08/19 00:03:12;;;;;;;6.43;3.90;;;;;;;;;;622720;23;1268;-75
2023/08/19 00:03:28;;;;;;;6.63;3.95;;;;;;;;;;619985;23;1250;-75
2023/08/19 00:03:43;;;;;;;6.30;3.90;;;;;;;;;;620337;23;836;-75
2023/08/19 00:03:59;;;;;;;6.53;3.88;;;;;;;;;;622443;23;1225;-75
2023/08/19 00:04:15;;;;;;;5.78;3.78;;;;;;;;;;623225;23;1036;-75
2023/08/19 00:04:30;;;;;;;4.93;3.70;;;;;;;;;;623072;23;1158;-76
2023/08/19 00:04:45;;;;;;;5.23;3.83;;;;;;;;;;619754;23;1190;-75
2023/08/19 00:05:00;;;;;;;6.00;3.93;;;;;;;;;;620180;23;1353;-75
2023/08/19 00:05:17;;;;;;;6.53;4.28;;;;;;;;;;620120;23;1300;-75
2023/08/19 00:05:32;;;;;;;8.50;4.50;;;;;;;;;;619896;23;1559;-75
2023/08/19 00:05:47;;;;;;;9.67;4.20;;;;;;;;;;622773;23;1264;-74
2023/08/19 00:06:08;;;;;;;9.13;4.10;;;;;;;;;;625081;23;1914;-75
2023/08/19 00:06:39;;;;;;;6.10;3.90;;;;;;;;;;628719;23;1394;-75
2023/08/19 00:06:54;;;;;;;8.35;3.80;;;;;;;;;;628874;23;1034;-75
2023/08/19 00:07:09;;;;;;;8.07;3.97;;;;;;;;;;628843;23;1213;-75
2023/08/19 00:07:24;;;;;;;8.07;3.80;;;;;;;;;;625287;23;1201;-75
2023/08/19 00:07:40;;;;;;;7.33;3.70;;;;;;;;;;625495;23;1492;-75
2023/08/19 00:07:55;;;;;;;7.05;3.95;;;;;;;;;;625876;23;812;-75
2023/08/19 00:08:10;;;;;;;6.23;3.90;;;;;;;;;;622728;23;1180;-75
2023/08/19 00:08:26;;;;;;;5.20;3.67;;;;;;;;;;622693;23;1281;-75
2023/08/19 00:08:41;;;;;;;5.20;3.60;;;;;;;;;;622348;23;1307;-75
2023/08/19 00:08:56;;;;;;;4.57;3.38;;;;;;;;;;622649;23;1128;-75
2023/08/19 00:09:11;;;;;;;5.00;3.30;;;;;;;;;;625690;23;1030;-75
2023/08/19 00:09:27;;;;;;;8.00;3.73;;;;;;;;;;628468;23;927;-74
2023/08/19 00:09:42;;;;;;;9.05;4.00;;;;;;;;;;628120;23;863;-75
2023/08/19 00:10:01;;;;;;;7.53;4.17;;;;;;;;;;628559;23;1181;-75
2023/08/19 00:10:16;;;;;;;7.45;4.05;;;;;;;;;;631649;23;986;-75
2023/08/19 00:10:31;;;;;;;8.77;4.23;;;;;;;;;;629820;23;1228;-75
2023/08/19 00:10:47;;;;;;;8.47;4.23;;;;;;;;;;628807;23;1298;-75
2023/08/19 00:11:03;;;;;;;8.03;4.10;;;;;;;;;;628559;23;1292;-75
2023/08/19 00:11:18;;;;;;;8.10;4.10;;;;;;;;;;625119;23;1335;-75
2023/08/19 00:11:38;;;;;;;8.27;4.20;;;;;;;;;;625995;23;1177;-76
2023/08/19 00:11:53;;;;;;;7.53;4.00;;;;;;;;;;622944;23;1288;-75
2023/08/19 00:12:08;;;;;;;6.37;3.90;;;;;;;;;;622693;23;1171;-76
2023/08/19 00:12:24;;;;;;;6.83;3.90;;;;;;;;;;616866;23;1209;-75
2023/08/19 00:12:39;;;;;;;6.10;3.90;;;;;;;;;;616972;24;812;-76
2023/08/19 00:12:55;;;;;;;5.23;4.00;;;;;;;;;;617700;23;817;-76
2023/08/19 00:13:10;;;;;;;6.37;3.93;;;;;;;;;;623621;23;1271;-75
2023/08/19 00:13:25;;;;;;;7.50;3.78;;;;;;;;;;624202;23;1306;-75
2023/08/19 00:13:41;;;;;;;7.30;3.70;;;;;;;;;;622697;23;1158;-76
2023/08/19 00:13:56;;;;;;;7.77;3.83;;;;;;;;;;625840;23;1047;-75
2023/08/19 00:14:12;;;;;;;7.15;3.90;;;;;;;;;;629167;23;1066;-76
2023/08/19 00:14:27;;;;;;;6.40;3.70;;;;;;;;;;628332;23;1182;-75
2023/08/19 00:14:42;;;;;;;6.50;3.53;;;;;;;;;;625377;23;1314;-75
2023/08/19 00:14:57;;;;;;;6.18;3.60;;;;;;;;;;625148;23;1565;-73
2023/08/19 00:15:13;;;;;;;6.37;3.97;;;;;;;;;;625772;23;1273;-74
2023/08/19 00:15:28;;;;;;;5.47;3.90;;;;;;;;;;625921;23;1292;-74
2023/08/19 00:15:43;;;;;;;5.13;3.70;;;;;;;;;;625609;23;1464;-75
2023/08/19 00:15:59;;;;;;;5.93;3.80;;;;;;;;;;625545;23;1363;-74
2023/08/19 00:16:14;;;;;;;6.30;3.73;;;;;;;;;;628553;23;1268;-74
2023/08/19 00:16:30;;;;;;;5.17;3.67;;;;;;;;;;628691;23;1352;-74
2023/08/19 00:16:45;;;;;;;4.20;3.63;;;;;;;;;;625930;23;1193;-74
2023/08/19 00:17:02;;;;;;;4.30;3.47;;;;;;;;;;624913;23;1250;-74
2023/08/19 00:17:18;;;;;;;7.03;3.80;;;;;;;;;;622729;23;1403;-74
2023/08/19 00:17:33;;;;;;;9.07;4.30;;;;;;;;;;622755;23;1205;-75
2023/08/19 00:17:48;;;;;;;8.20;4.30;;;;;;;;;;622815;23;1170;-75
2023/08/19 00:18:04;;;;;;;9.00;4.40;;;;;;;;;;625649;23;1472;-75
2023/08/19 00:18:19;;;;;;;8.50;4.20;;;;;;;;;;625733;23;1224;-74
2023/08/19 00:18:34;;;;;;;6.43;3.97;;;;;;;;;;625697;23;1265;-74
2023/08/19 00:18:50;;;;;;;6.30;4.25;;;;;;;;;;622283;23;1349;-74
2023/08/19 00:19:05;;;;;;;6.37;4.23;;;;;;;;;;622675;23;963;-74
2023/08/19 00:19:20;;;;;;;6.17;4.27;;;;;;;;;;622759;23;1178;-74
2023/08/19 00:19:35;;;;;;;6.90;4.27;;;;;;;;;;623050;23;1003;-75
2023/08/19 00:19:51;;;;;;;6.70;4.10;;;;;;;;;;626230;23;1353;-75
2023/08/19 00:20:07;;;;;;;7.97;4.20;;;;;;;;;;625695;23;1459;-75
2023/08/19 00:20:26;;;;;;;8.05;4.15;;;;;;;;;;625925;23;1098;-75
2023/08/19 00:20:41;;;;;;;9.40;4.40;;;;;;;;;;629863;23;875;-75
2023/08/19 00:20:56;;;;;;;8.57;4.60;;;;;;;;;;631632;23;867;-75
2023/08/19 00:21:12;;;;;;;6.60;4.28;;;;;;;;;;628535;23;1181;-75
2023/08/19 00:21:27;;;;;;;6.20;4.03;;;;;;;;;;625654;23;1300;-75
2023/08/19 00:21:42;;;;;;;6.93;4.27;;;;;;;;;;625833;23;808;-75
2023/08/19 00:21:57;;;;;;;7.87;4.50;;;;;;;;;;623989;23;1269;-75
2023/08/19 00:22:13;;;;;;;8.47;4.40;;;;;;;;;;622498;23;1348;-75
2023/08/19 00:22:28;;;;;;;8.60;4.53;;;;;;;;;;622686;23;1280;-75
2023/08/19 00:22:43;;;;;;;8.13;4.43;;;;;;;;;;623006;23;1192;-75
2023/08/19 00:22:59;;;;;;;9.60;4.53;;;;;;;;;;622840;23;1357;-75
2023/08/19 00:23:16;;;;;;;9.57;4.63;;;;;;;;;;622706;23;1343;-77
2023/08/19 00:23:31;;;;;;;7.43;4.53;;;;;;;;;;622793;23;1002;-75
2023/08/19 00:23:46;;;;;;;6.63;4.60;;;;;;;;;;622415;23;1256;-75
2023/08/19 00:24:02;;;;;;;6.90;4.37;;;;;;;;;;625698;23;1281;-75
2023/08/19 00:24:17;;;;;;;7.82;4.38;;;;;;;;;;625836;23;1261;-75
2023/08/19 00:24:32;;;;;;;7.07;4.23;;;;;;;;;;620055;23;1591;-75
2023/08/19 00:24:48;;;;;;;5.47;4.00;;;;;;;;;;619498;23;1262;-75
2023/08/19 00:25:07;;;;;;;5.63;4.10;;;;;;;;;;622798;23;1202;-75
2023/08/19 00:25:25;;;;;;;7.57;4.38;;;;;;;;;;625791;23;1286;-75
2023/08/19 00:25:41;;;;;;;7.40;4.35;;;;;;;;;;625675;23;1074;-75
2023/08/19 00:25:56;;;;;;;7.47;4.15;;;;;;;;;;625601;23;1010;-74
2023/08/19 00:26:12;;;;;;;8.20;4.20;;;;;;;;;;626092;23;1953;-75
2023/08/19 00:26:27;;;;;;;7.93;4.40;;;;;;;;;;627531;23;1192;-74
2023/08/19 00:26:42;;;;;;;10.68;4.78;;;;;;;;;;628833;23;820;-75
2023/08/19 00:26:59;;;;;;;9.63;4.77;;;;;;;;;;630478;23;1364;-75
2023/08/19 00:27:15;;;;;;;7.45;4.63;;;;;;;;;;631842;23;920;-75
2023/08/19 00:27:30;;;;;;;8.40;4.73;;;;;;;;;;628784;23;1237;-75
2023/08/19 00:27:45;;;;;;;8.30;4.63;;;;;;;;;;628797;23;824;-75
2023/08/19 00:28:03;;;;;;;7.57;4.30;;;;;;;;;;626273;23;1166;-75
2023/08/19 00:28:19;;;;;;;8.30;4.25;;;;;;;;;;627468;23;1382;-75
2023/08/19 00:28:34;;;;;;;8.80;4.57;;;;;;;;;;622697;23;1295;-75
2023/08/19 00:28:50;;;;;;;8.20;4.60;;;;;;;;;;623857;23;844;-74
2023/08/19 00:29:05;;;;;;;6.40;4.13;;;;;;;;;;625638;23;1303;-75
2023/08/19 00:29:21;;;;;;;6.20;4.20;;;;;;;;;;625026;23;1296;-75
2023/08/19 00:29:36;;;;;;;6.77;4.43;;;;;;;;;;622596;23;1377;-75
2023/08/19 00:29:51;;;;;;;7.23;4.37;;;;;;;;;;623095;23;1266;-75
2023/08/19 00:30:07;;;;;;;7.35;4.20;;;;;;;;;;620041;23;1683;-75
2023/08/19 00:30:22;;;;;;;6.25;4.20;;;;;;;;;;622549;23;1180;-74
2023/08/19 00:30:38;;;;;;;6.60;4.30;;;;;;;;;;625704;23;1149;-75
2023/08/19 00:30:53;;;;;;;7.87;4.43;;;;;;;;;;625510;23;1174;-75
2023/08/19 00:31:09;;;;;;;7.23;4.40;;;;;;;;;;625955;23;911;-74
2023/08/19 00:31:26;;;;;;;6.88;4.50;;;;;;;;;;625724;23;852;-75
2023/08/19 00:31:42;;;;;;;7.40;4.80;;;;;;;;;;622508;23;1397;-75
2023/08/19 00:31:57;;;;;;;7.77;4.60;;;;;;;;;;626604;23;1255;-75
2023/08/19 00:32:12;;;;;;;7.35;4.53;;;;;;;;;;625862;23;1221;-75
2023/08/19 00:32:28;;;;;;;6.80;4.70;;;;;;;;;;625656;23;786;-75
2023/08/19 00:32:44;;;;;;;6.77;4.60;;;;;;;;;;626481;23;1344;-75
2023/08/19 00:32:59;;;;;;;7.28;4.40;;;;;;;;;;628704;23;929;-75
2023/08/19 00:33:15;;;;;;;8.93;4.43;;;;;;;;;;625738;23;1209;-75
2023/08/19 00:33:30;;;;;;;8.10;4.53;;;;;;;;;;625825;23;1193;-75
2023/08/19 00:33:45;;;;;;;6.63;4.40;;;;;;;;;;625451;23;1173;-75
2023/08/19 00:34:01;;;;;;;8.23;4.45;;;;;;;;;;626110;23;1419;-74
2023/08/19 00:34:16;;;;;;;9.17;4.37;;;;;;;;;;628350;23;1173;-75
2023/08/19 00:34:31;;;;;;;7.53;4.17;;;;;;;;;;626066;23;1350;-75
2023/08/19 00:34:47;;;;;;;6.43;4.03;;;;;;;;;;625579;23;1325;-74
2023/08/19 00:35:03;;;;;;;6.40;4.20;;;;;;;;;;625758;23;824;-75
2023/08/19 00:35:18;;;;;;;7.25;4.35;;;;;;;;;;625627;23;1212;-75
2023/08/19 00:35:33;;;;;;;9.13;4.50;;;;;;;;;;626049;23;1275;-75
2023/08/19 00:35:52;;;;;;;8.35;4.50;;;;;;;;;;626253;23;911;-75
2023/08/19 00:36:07;;;;;;;7.38;4.20;;;;;;;;;;628486;23;1364;-75
2023/08/19 00:36:22;;;;;;;6.70;4.43;;;;;;;;;;627101;23;1358;-75
2023/08/19 00:36:38;;;;;;;6.53;4.70;;;;;;;;;;625710;23;1386;-75
2023/08/19 00:36:54;;;;;;;6.65;4.43;;;;;;;;;;625716;23;1208;-74
2023/08/19 00:37:09;;;;;;;6.47;4.15;;;;;;;;;;625587;23;1287;-75
2023/08/19 00:37:24;;;;;;;6.07;4.17;;;;;;;;;;625223;23;955;-75
2023/08/19 00:37:40;;;;;;;5.72;4.20;;;;;;;;;;622390;23;1301;-75
2023/08/19 00:37:56;;;;;;;6.57;4.37;;;;;;;;;;625791;23;1315;-75
2023/08/19 00:38:11;;;;;;;7.25;4.55;;;;;;;;;;623248;23;1345;-75
2023/08/19 00:38:27;;;;;;;7.67;4.60;;;;;;;;;;622899;23;851;-75
2023/08/19 00:38:44;;;;;;;8.65;4.50;;;;;;;;;;623311;23;1055;-75
2023/08/19 00:38:59;;;;;;;8.07;4.57;;;;;;;;;;625714;23;848;-75
2023/08/19 00:39:15;;;;;;;8.27;4.60;;;;;;;;;;622552;23;1254;-75
2023/08/19 00:39:30;;;;;;;8.55;4.70;;;;;;;;;;623608;23;1233;-75
2023/08/19 00:39:45;;;;;;;7.50;4.50;;;;;;;;;;626823;23;1182;-75
2023/08/19 00:40:04;;;;;;;7.13;4.13;;;;;;;;;;627940;23;1257;-75
2023/08/19 00:40:19;;;;;;;8.32;4.20;;;;;;;;;;625730;23;1585;-75
2023/08/19 00:40:34;;;;;;;9.10;4.30;;;;;;;;;;625969;23;1197;-75
2023/08/19 00:40:49;;;;;;;7.50;4.23;;;;;;;;;;625369;23;1219;-75
2023/08/19 00:41:05;;;;;;;7.27;4.57;;;;;;;;;;626039;23;1155;-75
2023/08/19 00:41:21;;;;;;;7.00;4.70;;;;;;;;;;622760;23;1169;-75
2023/08/19 00:41:37;;;;;;;6.28;4.40;;;;;;;;;;622801;23;1010;-76
2023/08/19 00:41:54;;;;;;;5.97;4.28;;;;;;;;;;624032;23;1284;-75
2023/08/19 00:42:09;;;;;;;6.45;4.22;;;;;;;;;;625280;23;941;-75
2023/08/19 00:42:24;;;;;;;6.97;4.30;;;;;;;;;;623490;23;868;-76
2023/08/19 00:42:40;;;;;;;5.90;4.27;;;;;;;;;;623592;23;1181;-75
2023/08/19 00:42:55;;;;;;;6.95;4.30;;;;;;;;;;622519;23;1178;-75
2023/08/19 00:43:10;;;;;;;8.37;4.60;;;;;;;;;;623694;23;1278;-75
2023/08/19 00:43:26;;;;;;;8.23;4.77;;;;;;;;;;628597;23;1263;-75
2023/08/19 00:43:41;;;;;;;8.50;4.78;;;;;;;;;;628441;23;1210;-75
2023/08/19 00:43:57;;;;;;;8.40;4.80;;;;;;;;;;628785;23;1287;-75
2023/08/19 00:44:12;;;;;;;8.05;4.78;;;;;;;;;;628234;23;903;-75
2023/08/19 00:44:28;;;;;;;7.73;4.50;;;;;;;;;;628460;23;1154;-75
2023/08/19 00:44:43;;;;;;;6.87;4.23;;;;;;;;;;628435;23;1177;-75
2023/08/19 00:44:58;;;;;;;7.70;4.40;;;;;;;;;;626097;23;1338;-75
2023/08/19 00:45:13;;;;;;;8.07;4.65;;;;;;;;;;622759;23;1341;-75
2023/08/19 00:45:28;;;;;;;7.17;4.70;;;;;;;;;;622636;23;1194;-76
2023/08/19 00:45:48;;;;;;;6.10;4.43;;;;;;;;;;625477;23;1166;-75
2023/08/19 00:46:06;;;;;;;6.35;4.28;;;;;;;;;;622533;23;1953;-75
2023/08/19 00:46:21;;;;;;;8.68;4.07;;;;;;;;;;625888;23;978;-75
2023/08/19 00:46:36;;;;;;;7.83;4.10;;;;;;;;;;622665;23;1281;-77
2023/08/19 00:46:52;;;;;;;6.15;4.30;;;;;;;;;;619796;23;1322;-74
2023/08/19 00:47:08;;;;;;;6.93;4.38;;;;;;;;;;620009;23;765;-75
2023/08/19 00:47:24;;;;;;;6.70;4.38;;;;;;;;;;621655;23;901;-75
2023/08/19 00:47:40;;;;;;;7.07;4.60;;;;;;;;;;622483;23;943;-75
2023/08/19 00:47:55;;;;;;;7.07;4.70;;;;;;;;;;621117;23;1318;-76
2023/08/19 00:48:12;;;;;;;7.50;4.60;;;;;;;;;;623492;23;850;-75
2023/08/19 00:48:28;;;;;;;8.60;4.60;;;;;;;;;;626727;23;908;-75
2023/08/19 00:48:43;;;;;;;8.17;4.43;;;;;;;;;;629610;23;1424;-75
2023/08/19 00:48:59;;;;;;;8.00;4.40;;;;;;;;;;628269;23;1184;-75
2023/08/19 00:49:15;;;;;;;7.63;4.40;;;;;;;;;;628835;23;840;-76
2023/08/19 00:49:31;;;;;;;7.50;4.53;;;;;;;;;;625651;23;1322;-75
2023/08/19 00:49:48;;;;;;;8.52;4.60;;;;;;;;;;622601;23;1422;-75
2023/08/19 00:50:06;;;;;;;7.68;4.68;;;;;;;;;;619780;23;1278;-75
2023/08/19 00:50:24;;;;;;;6.10;4.70;;;;;;;;;;618886;23;1216;-75
2023/08/19 00:50:40;;;;;;;6.68;4.43;;;;;;;;;;621642;23;1567;-75
2023/08/19 00:50:57;;;;;;;6.28;4.72;;;;;;;;;;622007;23;1209;-75
2023/08/19 00:51:13;;;;;;;6.20;4.70;;;;;;;;;;622648;23;883;-75
2023/08/19 00:51:28;;;;;;;7.35;4.50;;;;;;;;;;622204;23;1246;-75
2023/08/19 00:51:44;;;;;;;9.77;4.70;;;;;;;;;;624982;23;1170;-75
2023/08/19 00:52:00;;;;;;;8.57;4.57;;;;;;;;;;625560;23;1480;-75
2023/08/19 00:52:16;;;;;;;6.60;4.40;;;;;;;;;;625772;23;1373;-75
2023/08/19 00:52:33;;;;;;;7.73;4.70;;;;;;;;;;625530;23;1154;-75
2023/08/19 00:52:49;;;;;;;9.20;4.70;;;;;;;;;;628443;23;1492;-74
2023/08/19 00:53:05;;;;;;;9.23;4.57;;;;;;;;;;626116;23;1224;-75
2023/08/19 00:53:21;;;;;;;7.47;4.63;;;;;;;;;;625747;23;923;-74
2023/08/19 00:53:36;;;;;;;7.07;4.40;;;;;;;;;;625678;23;1461;-75
2023/08/19 00:53:52;;;;;;;8.40;4.67;;;;;;;;;;628703;23;1257;-74
2023/08/19 00:54:08;;;;;;;9.45;5.03;;;;;;;;;;628893;23;893;-76
2023/08/19 00:54:23;;;;;;;7.67;4.80;;;;;;;;;;627254;23;1188;-75
2023/08/19 00:54:39;;;;;;;6.97;4.77;;;;;;;;;;625728;23;1251;-74
2023/08/19 00:54:54;;;;;;;8.30;4.50;;;;;;;;;;626567;23;854;-76
2023/08/19 00:55:10;;;;;;;7.70;4.37;;;;;;;;;;628665;23;1259;-75
2023/08/19 00:55:25;;;;;;;7.57;4.50;;;;;;;;;;628019;23;1010;-75
2023/08/19 00:55:40;;;;;;;7.43;4.60;;;;;;;;;;626088;23;975;-75
2023/08/19 00:55:56;;;;;;;6.90;4.50;;;;;;;;;;625938;23;1294;-75
2023/08/19 00:56:12;;;;;;;8.20;4.47;;;;;;;;;;626122;23;1313;-75
2023/08/19 00:56:27;;;;;;;7.65;4.55;;;;;;;;;;625596;23;1225;-74
2023/08/19 00:56:42;;;;;;;7.03;4.50;;;;;;;;;;625582;23;1349;-75
2023/08/19 00:56:58;;;;;;;7.53;4.57;;;;;;;;;;625192;23;1205;-75
2023/08/19 00:57:13;;;;;;;8.50;4.70;;;;;;;;;;625694;23;844;-75
2023/08/19 00:57:29;;;;;;;9.23;5.03;;;;;;;;;;622957;23;1189;-75
2023/08/19 00:57:44;;;;;;;8.55;4.90;;;;;;;;;;623408;23;908;-75
2023/08/19 00:58:03;;;;;;;8.37;4.60;;;;;;;;;;623158;23;1171;-75
2023/08/19 00:58:18;;;;;;;8.10;4.60;;;;;;;;;;622658;23;1275;-75
2023/08/19 00:58:34;;;;;;;8.70;4.40;;;;;;;;;;622127;23;1313;-75
2023/08/19 00:58:49;;;;;;;8.60;4.57;;;;;;;;;;623928;23;955;-75
2023/08/19 00:59:05;;;;;;;6.75;4.63;;;;;;;;;;622633;23;1198;-75
2023/08/19 00:59:20;;;;;;;8.53;4.90;;;;;;;;;;623830;23;1353;-75
2023/08/19 00:59:36;;;;;;;10.70;4.97;;;;;;;;;;626046;23;1312;-75
2023/08/19 00:59:51;;;;;;;9.30;4.80;;;;;;;;;;628480;23;1253;-75
2023/08/19 01:00:07;;;;;;;7.43;4.60;;;;;;;;;;625409;23;1407;-75
2023/08/19 01:00:22;;;;;;;7.97;4.50;;;;;;;;;;625555;23;1095;-75
2023/08/19 01:00:38;;;;;;;8.52;4.75;;;;;;;;;;623010;23;1210;-75
2023/08/19 01:00:53;;;;;;;8.63;4.97;;;;;;;;;;623049;23;864;-76
2023/08/19 01:01:08;;;;;;;8.15;4.88;;;;;;;;;;622345;23;913;-75
2023/08/19 01:01:24;;;;;;;8.83;4.87;;;;;;;;;;622125;23;1300;-75
2023/08/19 01:01:40;;;;;;;9.82;5.00;;;;;;;;;;623203;23;1323;-75
2023/08/19 01:01:55;;;;;;;7.53;4.90;;;;;;;;;;623695;23;1268;-75
2023/08/19 01:02:11;;;;;;;6.50;4.50;;;;;;;;;;625446;23;1391;-75
2023/08/19 01:02:27;;;;;;;5.93;4.60;;;;;;;;;;622565;23;1302;-75
2023/08/19 01:02:42;;;;;;;6.60;4.93;;;;;;;;;;622930;23;1371;-74
2023/08/19 01:02:58;;;;;;;7.85;4.63;;;;;;;;;;622871;23;842;-75
2023/08/19 01:03:13;;;;;;;9.13;4.60;;;;;;;;;;625761;23;1272;-75
2023/08/19 01:03:29;;;;;;;8.30;4.67;;;;;;;;;;626514;23;904;-74
2023/08/19 01:03:44;;;;;;;6.53;4.50;;;;;;;;;;627889;23;829;-76
2023/08/19 01:03:59;;;;;;;6.10;4.20;;;;;;;;;;626216;23;926;-75
2023/08/19 01:04:15;;;;;;;7.13;4.30;;;;;;;;;;625463;23;1294;-75
2023/08/19 01:04:30;;;;;;;6.80;4.30;;;;;;;;;;626153;23;768;-75
2023/08/19 01:04:45;;;;;;;6.70;4.23;;;;;;;;;;625549;23;1200;-75
2023/08/19 01:05:01;;;;;;;7.78;4.35;;;;;;;;;;626012;23;1711;-75
2023/08/19 01:05:17;;;;;;;8.57;4.60;;;;;;;;;;625863;23;1265;-75
2023/08/19 01:05:58;;;;;;;7.30;4.53;;;;;;;;;;625902;23;836;-75
2023/08/19 01:06:36;;;;;;;6.13;4.18;;;;;;;;;;625335;23;1973;-75
2023/08/19 01:07:15;;;;;;;6.30;4.30;;;;;;;;;;626993;23;2004;-75
2023/08/19 01:07:36;;;;;;;7.32;4.20;;;;;;;;;;628480;23;1349;-74
2023/08/19 01:07:54;;;;;;;6.15;4.20;;;;;;;;;;628818;23;918;-74
2023/08/19 01:08:16;;;;;;;8.88;4.20;;;;;;;;;;625540;23;1275;-75
2023/08/19 01:08:47;;;;;;;9.73;4.50;;;;;;;;;;622421;23;1324;-75
2023/08/19 01:09:17;;;;;;;6.88;4.50;;;;;;;;;;621871;23;1438;-74
2023/08/19 01:09:52;;;;;;;7.20;4.43;;;;;;;;;;625507;23;1090;-75
2023/08/19 01:10:11;;;;;;;5.97;4.43;;;;;;;;;;627568;23;1417;-74
2023/08/19 01:10:27;;;;;;;5.82;4.20;;;;;;;;;;627850;23;1468;-75
2023/08/19 01:10:51;;;;;;;9.23;4.60;;;;;;;;;;625272;23;1197;-75
2023/08/19 01:11:16;;;;;;;8.15;4.60;;;;;;;;;;628255;23;942;-75
2023/08/19 01:11:50;;;;;;;8.57;4.55;;;;;;;;;;628726;23;883;-75
2023/08/19 01:12:21;;;;;;;9.02;4.63;;;;;;;;;;625935;23;1272;-76
2023/08/19 01:12:46;;;;;;;6.20;4.38;;;;;;;;;;630168;23;1359;-76
2023/08/19 01:13:12;;;;;;;7.15;4.72;;;;;;;;;;627877;23;954;-75
2023/08/19 01:13:33;;;;;;;7.75;4.40;;;;;;;;;;625743;23;1061;-75
2023/08/19 01:14:00;;;;;;;6.05;4.38;;;;;;;;;;625542;23;1522;-74
2023/08/19 01:14:44;;;;;;;5.75;4.00;;;;;;;;;;628684;23;1062;-75
2023/08/19 01:14:59;;;;;;;5.25;4.00;;;;;;;;;;631003;23;1260;-75
2023/08/19 01:15:21;;;;;;;4.67;3.80;;;;;;;;;;628832;23;1422;-75
2023/08/19 01:15:44;;;;;;;5.30;3.97;;;;;;;;;;628590;23;1457;-74
2023/08/19 01:16:14;;;;;;;5.78;3.88;;;;;;;;;;628712;23;883;-75
2023/08/19 01:16:32;;;;;;;5.10;3.90;;;;;;;;;;625745;23;943;-74
2023/08/19 01:16:52;;;;;;;5.25;3.70;;;;;;;;;;622268;23;1543;-75
2023/08/19 01:17:11;;;;;;;5.68;3.60;;;;;;;;;;624290;23;821;-75
2023/08/19 01:17:29;;;;;;;4.90;3.80;;;;;;;;;;626276;23;932;-75
2023/08/19 01:17:47;;;;;;;4.80;3.80;;;;;;;;;;628607;23;875;-75
2023/08/19 01:18:05;;;;;;;6.10;3.85;;;;;;;;;;625793;23;1341;-75
2023/08/19 01:18:23;;;;;;;5.45;3.83;;;;;;;;;;626674;23;901;-75
2023/08/19 01:18:39;;;;;;;5.88;4.00;;;;;;;;;;629488;23;1317;-75
2023/08/19 01:18:56;;;;;;;6.10;4.00;;;;;;;;;;631394;23;927;-75
2023/08/19 01:19:22;;;;;;;6.68;4.25;;;;;;;;;;628381;23;1217;-74
2023/08/19 01:19:41;;;;;;;4.45;3.50;;;;;;;;;;628493;23;994;-76
2023/08/19 01:19:57;;;;;;;5.57;3.85;;;;;;;;;;628527;23;831;-75
2023/08/19 01:20:13;;;;;;;6.28;4.00;;;;;;;;;;628279;23;1303;-75
2023/08/19 01:20:31;;;;;;;6.27;4.00;;;;;;;;;;628901;23;859;-75
2023/08/19 01:20:47;;;;;;;5.80;4.13;;;;;;;;;;625513;23;911;-75
2023/08/19 01:21:04;;;;;;;7.45;4.30;;;;;;;;;;626562;23;1017;-75
2023/08/19 01:21:20;;;;;;;8.40;4.30;;;;;;;;;;626123;23;1331;-74
2023/08/19 01:21:37;;;;;;;6.57;4.05;;;;;;;;;;625581;23;1764;-75
2023/08/19 01:21:52;;;;;;;6.50;4.05;;;;;;;;;;625729;23;983;-75
2023/08/19 01:22:11;;;;;;;8.60;4.37;;;;;;;;;;627928;23;920;-75
2023/08/19 01:22:52;;;;;;;8.27;4.10;;;;;;;;;;628683;23;869;-75
2023/08/19 01:23:18;;;;;;;5.65;4.20;;;;;;;;;;629175;23;1664;-75
2023/08/19 01:23:39;;;;;;;6.97;4.45;;;;;;;;;;631534;23;1319;-75
2023/08/19 01:23:58;;;;;;;5.72;4.13;;;;;;;;;;631594;23;903;-75
2023/08/19 01:24:18;;;;;;;6.85;4.05;;;;;;;;;;629056;23;1388;-75
2023/08/19 01:24:40;;;;;;;8.40;4.20;;;;;;;;;;628519;23;938;-74
2023/08/19 01:24:56;;;;;;;8.40;4.50;;;;;;;;;;625665;23;1349;-75
2023/08/19 01:25:12;;;;;;;6.55;4.50;;;;;;;;;;625500;23;952;-75
2023/08/19 01:25:27;;;;;;;5.82;4.15;;;;;;;;;;625658;23;1431;-76
2023/08/19 01:25:43;;;;;;;5.57;3.93;;;;;;;;;;622602;23;1275;-75
2023/08/19 01:25:59;;;;;;;6.15;4.10;;;;;;;;;;619785;23;1306;-75
2023/08/19 01:26:17;;;;;;;6.88;4.10;;;;;;;;;;622472;23;1938;-75
2023/08/19 01:26:32;;;;;;;6.07;4.03;;;;;;;;;;622811;23;1278;-75
2023/08/19 01:26:47;;;;;;;5.73;4.00;;;;;;;;;;621988;23;1294;-75
2023/08/19 01:27:20;;;;;;;6.03;4.00;;;;;;;;;;617588;23;1207;-75
2023/08/19 01:27:36;;;;;;;6.53;4.10;;;;;;;;;;620899;23;1085;-75
2023/08/19 01:27:51;;;;;;;6.03;4.00;;;;;;;;;;623642;23;1195;-75
2023/08/19 01:28:07;;;;;;;5.57;4.05;;;;;;;;;;627010;23;983;-75
2023/08/19 01:28:22;;;;;;;6.10;4.17;;;;;;;;;;625303;23;1335;-75
2023/08/19 01:28:37;;;;;;;6.25;3.90;;;;;;;;;;625688;23;1343;-76
2023/08/19 01:28:52;;;;;;;5.67;3.77;;;;;;;;;;625693;23;1280;-75
2023/08/19 01:29:08;;;;;;;5.00;3.70;;;;;;;;;;625969;23;983;-74
2023/08/19 01:29:23;;;;;;;5.37;3.70;;;;;;;;;;625747;23;1185;-75
2023/08/19 01:29:38;;;;;;;6.13;3.90;;;;;;;;;;625535;23;848;-75
2023/08/19 01:29:55;;;;;;;5.87;4.00;;;;;;;;;;622428;23;1175;-75
2023/08/19 01:30:11;;;;;;;5.82;4.00;;;;;;;;;;623366;23;856;-75
2023/08/19 01:30:28;;;;;;;8.00;4.20;;;;;;;;;;625959;23;1196;-75
2023/08/19 01:30:44;;;;;;;9.10;4.50;;;;;;;;;;628216;23;903;-75
2023/08/19 01:31:00;;;;;;;8.10;4.33;;;;;;;;;;628554;23;812;-75
2023/08/19 01:31:15;;;;;;;6.68;3.95;;;;;;;;;;630208;23;784;-74
2023/08/19 01:31:30;;;;;;;5.87;3.97;;;;;;;;;;628572;23;1282;-75
2023/08/19 01:31:45;;;;;;;6.78;4.35;;;;;;;;;;625875;23;1297;-76
2023/08/19 01:32:01;;;;;;;8.73;4.50;;;;;;;;;;622627;23;1130;-75
2023/08/19 01:32:17;;;;;;;8.10;4.45;;;;;;;;;;623080;23;1179;-75
2023/08/19 01:32:32;;;;;;;7.03;4.38;;;;;;;;;;622319;23;1271;-75
2023/08/19 01:32:48;;;;;;;6.70;4.13;;;;;;;;;;619868;23;1170;-75
2023/08/19 01:33:04;;;;;;;8.57;4.40;;;;;;;;;;619670;23;1149;-76
2023/08/19 01:33:19;;;;;;;11.02;4.70;;;;;;;;;;619257;23;976;-75
2023/08/19 01:33:35;;;;;;;9.38;4.50;;;;;;;;;;619149;23;1202;-75
2023/08/19 01:33:50;;;;;;;7.63;4.30;;;;;;;;;;620714;23;920;-74
2023/08/19 01:34:05;;;;;;;7.32;4.25;;;;;;;;;;619457;23;1338;-75
2023/08/19 01:34:22;;;;;;;8.33;4.20;;;;;;;;;;620302;23;853;-74
2023/08/19 01:34:37;;;;;;;8.38;4.40;;;;;;;;;;623290;23;843;-75
2023/08/19 01:34:56;;;;;;;8.50;4.45;;;;;;;;;;622816;23;1233;-75
2023/08/19 01:35:12;;;;;;;7.70;4.35;;;;;;;;;;622384;23;1469;-75
2023/08/19 01:35:30;;;;;;;7.22;4.50;;;;;;;;;;621116;23;1351;-75
2023/08/19 01:35:53;;;;;;;8.02;4.50;;;;;;;;;;622436;23;1421;-75
2023/08/19 01:36:29;;;;;;;8.70;4.68;;;;;;;;;;622398;23;1226;-75
2023/08/19 01:36:50;;;;;;;9.25;4.55;;;;;;;;;;623681;23;1070;-75
2023/08/19 01:37:11;;;;;;;8.00;4.22;;;;;;;;;;624382;23;1339;-75
2023/08/19 01:37:39;;;;;;;7.40;4.35;;;;;;;;;;628261;23;903;-75
2023/08/19 01:37:57;;;;;;;8.15;4.20;;;;;;;;;;631517;23;959;-75
2023/08/19 01:38:22;;;;;;;7.60;4.43;;;;;;;;;;628513;23;1326;-75
2023/08/19 01:38:52;;;;;;;6.97;4.00;;;;;;;;;;625918;23;1361;-75
2023/08/19 01:39:09;;;;;;;7.13;4.35;;;;;;;;;;628374;23;1070;-76
2023/08/19 01:39:25;;;;;;;7.40;4.45;;;;;;;;;;625052;23;1425;-74
2023/08/19 01:39:44;;;;;;;6.20;4.50;;;;;;;;;;622332;23;1205;-75
2023/08/19 01:40:01;;;;;;;6.57;4.47;;;;;;;;;;620089;23;1253;-75
2023/08/19 01:40:16;;;;;;;7.60;4.50;;;;;;;;;;622644;23;1497;-75
2023/08/19 01:40:32;;;;;;;9.03;4.57;;;;;;;;;;621169;23;1259;-75
2023/08/19 01:40:48;;;;;;;9.18;4.70;;;;;;;;;;619303;23;1348;-75
2023/08/19 01:41:04;;;;;;;7.00;4.57;;;;;;;;;;619876;23;1139;-75
2023/08/19 01:41:22;;;;;;;4.85;3.90;;;;;;;;;;619980;23;938;-75
2023/08/19 01:41:38;;;;;;;4.60;3.70;;;;;;;;;;622317;23;1473;-76
2023/08/19 01:41:55;;;;;;;6.03;3.97;;;;;;;;;;619877;23;1253;-75
2023/08/19 01:42:11;;;;;;;6.07;3.85;;;;;;;;;;621232;23;932;-75
2023/08/19 01:42:27;;;;;;;5.93;3.60;;;;;;;;;;625622;23;1229;-74
2023/08/19 01:42:44;;;;;;;6.35;3.80;;;;;;;;;;627315;23;1349;-74
2023/08/19 01:43:00;;;;;;;6.35;3.75;;;;;;;;;;626996;23;1378;-75
2023/08/19 01:43:17;;;;;;;7.20;3.80;;;;;;;;;;628434;23;1049;-75
2023/08/19 01:43:33;;;;;;;7.85;4.07;;;;;;;;;;629944;23;1322;-75
2023/08/19 01:43:49;;;;;;;9.75;4.32;;;;;;;;;;630796;23;855;-75
2023/08/19 01:44:05;;;;;;;9.93;4.25;;;;;;;;;;631514;23;906;-74
2023/08/19 01:44:21;;;;;;;7.88;4.18;;;;;;;;;;628348;23;1323;-75
2023/08/19 01:44:38;;;;;;;8.43;4.40;;;;;;;;;;628731;23;1521;-75
2023/08/19 01:44:54;;;;;;;9.23;4.70;;;;;;;;;;625631;23;1244;-75
2023/08/19 01:45:11;;;;;;;8.07;4.30;;;;;;;;;;625352;23;1453;-75
2023/08/19 01:45:26;;;;;;;8.70;4.05;;;;;;;;;;627574;23;1255;-75
2023/08/19 01:45:42;;;;;;;8.50;4.15;;;;;;;;;;628454;23;930;-75
2023/08/19 01:45:57;;;;;;;6.77;4.00;;;;;;;;;;625435;23;1177;-75